Hovedside
METAR-TAF:

METAR-TAF

Lufthavner :

Ronneby lufthavn

Ronneby, Sverige

breddegrad: 56-16N, lengdegrad: 015-17E, høyde over havet: 58 m

Gjeldene værobservasjon

Denne rapporten ble laget for 24 minutter siden, klokken 15:20 UTC
Vind 10 kt fra Sør-sørøst, skiftende mellom Sørøst og Sør
Temperatur 16°C
Luftfuktighet 42%
Trykk 1035 hPa
Sikt 10 km eller mer
ingen skyer under 1500 m og ingen bygeskyer

METAR: ESDF 181520Z 16010KT 130V190 CAVOK 16/03 Q1035

Tid: 17:44 (15:44 UTC)

Varsel

Denne rapporten ble laget for 1 time og 14 minutter siden, klokken 14:30 UTC
Varsel gyldig fra 18. klokken 15 UTC til 18. klokken 22 UTC
Vind 8 kt fra Øst
Sikt 10 km eller mer
ingen skyer under 1500 m og ingen bygeskyer

TAF: ESDF 181430Z 1815/1822 10008KT CAVOK

Værobservasjoner og værvarsel for over 4000 flyplasser (METAR- og TAF-rapporter).

Tilgjengelige stasjoner er representert av de røde og gule prikkene på kartet.

Hold musepekeren over prikken for å se navnet på stasjonen.

Klikk så for å se værobservasjoner og -varsler.

For å forandre kartet kan du klikke på den grønne knappen med svart kryss for å zoome inn, på den grønne knappen med strek for å zoome ut, eller på de grønne pilene for å se tilstøtende kart.


METAR-TAF: